Time,TemperatureF,DewpointF,PressureIn,WindDirection,WindDirectionDegrees,WindSpeedMPH,WindSpeedGustMPH,Humidity,HourlyPrecipIn,Conditions,Clouds,dailyrainin,SoftwareType,DateUTC
2013-09-20 00:00:00,49.0,47.0,30.08,South,174,0.0,-999.0,94,-99.99,,,-99.99,,2013-09-20 04:00:00,
2013-09-20 00:44:00,49.0,47.0,30.08,South,174,0.0,-999.0,94,-99.99,,,-99.99,,2013-09-20 04:44:00,
2013-09-20 00:54:00,49.0,47.0,30.08,South,174,0.0,-999.0,94,-99.99,,,-99.99,,2013-09-20 04:54:00,
2013-09-20 01:00:00,47.0,46.0,30.07,South,191,0.0,-999.0,94,-99.99,,,-99.99,,2013-09-20 05:00:00,
2013-09-20 01:43:00,47.0,46.0,30.07,South,191,0.0,-999.0,94,-99.99,,,-99.99,,2013-09-20 05:43:00,
2013-09-20 01:53:00,47.0,46.0,30.07,South,191,0.0,-999.0,94,-99.99,,,-99.99,,2013-09-20 05:53:00,
2013-09-20 02:00:00,46.0,44.0,30.07,SSW,207,0.0,-999.0,94,-99.99,,,-99.99,,2013-09-20 06:00:00,
2013-09-20 02:43:00,46.0,44.0,30.07,SSW,207,0.0,-999.0,94,-99.99,,,-99.99,,2013-09-20 06:43:00,
2013-09-20 02:52:00,46.0,44.0,30.07,SSW,207,0.0,-999.0,94,-99.99,,,-99.99,,2013-09-20 06:52:00,
2013-09-20 03:00:00,45.0,43.0,30.08,South,179,0.0,-999.0,94,-99.99,,,-99.99,,2013-09-20 07:00:00,
2013-09-20 03:53:00,45.0,43.0,30.08,South,179,0.0,-999.0,94,-99.99,,,-99.99,,2013-09-20 07:53:00,
2013-09-20 08:00:00,48.0,45.0,30.08,WSW,239,0.0,-999.0,91,-99.99,,,-99.99,,2013-09-20 12:00:00,
2013-09-20 08:43:00,48.0,45.0,30.08,WSW,239,0.0,-999.0,91,-99.99,,,-99.99,,2013-09-20 12:43:00,
2013-09-20 08:52:00,48.0,45.0,30.08,WSW,239,0.0,-999.0,91,-99.99,,,-99.99,,2013-09-20 12:52:00,
2013-09-20 09:00:00,63.0,56.0,30.08,SSW,195,0.0,-999.0,79,-99.99,,,-99.99,,2013-09-20 13:00:00,
2013-09-20 09:42:00,63.0,56.0,30.08,SSW,195,0.0,-999.0,79,-99.99,,,-99.99,,2013-09-20 13:42:00,
2013-09-20 09:53:00,63.0,56.0,30.08,SSW,195,0.0,-999.0,79,-99.99,,,-99.99,,2013-09-20 13:53:00,
2013-09-20 10:00:00,69.0,58.0,30.07,SW,233,0.0,-999.0,67,-99.99,,,-99.99,,2013-09-20 14:00:00,
2013-09-20 10:42:00,69.0,58.0,30.07,SW,233,0.0,-999.0,67,-99.99,,,-99.99,,2013-09-20 14:42:00,
2013-09-20 10:52:00,69.0,58.0,30.07,SW,233,0.0,-999.0,67,-99.99,,,-99.99,,2013-09-20 14:52:00,
2013-09-20 11:00:00,73.0,56.0,30.06,West,273,0.0,-999.0,56,-99.99,,,-99.99,,2013-09-20 15:00:00,
2013-09-20 11:44:00,73.0,56.0,30.06,West,273,0.0,-999.0,56,-99.99,,,-99.99,,2013-09-20 15:44:00,
2013-09-20 11:54:00,73.0,56.0,30.06,West,273,0.0,-999.0,56,-99.99,,,-99.99,,2013-09-20 15:54:00,
2013-09-20 12:00:00,75.0,55.0,30.05,South,180,0.0,-999.0,50,-99.99,,,-99.99,,2013-09-20 16:00:00,
2013-09-20 12:43:00,75.0,55.0,30.05,South,180,0.0,-999.0,50,-99.99,,,-99.99,,2013-09-20 16:43:00,
2013-09-20 12:53:00,75.0,55.0,30.05,South,180,0.0,-999.0,50,-99.99,,,-99.99,,2013-09-20 16:53:00,
2013-09-20 13:00:00,76.0,53.0,30.02,SSW,200,0.0,-999.0,45,-99.99,,,-99.99,,2013-09-20 17:00:00,
2013-09-20 13:43:00,76.0,53.0,30.02,SSW,200,0.0,-999.0,45,-99.99,,,-99.99,,2013-09-20 17:43:00,
2013-09-20 13:53:00,76.0,53.0,30.02,SSW,200,0.0,-999.0,45,-99.99,,,-99.99,,2013-09-20 17:53:00,
2013-09-20 14:00:00,78.0,53.0,30.01,WNW,292,0.0,-999.0,42,-99.99,,,-99.99,,2013-09-20 18:00:00,
2013-09-20 14:42:00,78.0,53.0,30.01,WNW,292,0.0,-999.0,42,-99.99,,,-99.99,,2013-09-20 18:42:00,
2013-09-20 14:52:00,78.0,53.0,30.01,WNW,292,0.0,-999.0,42,-99.99,,,-99.99,,2013-09-20 18:52:00,
2013-09-20 15:00:00,76.0,56.0,30.00,SSE,153,6.0,-999.0,49,-99.99,,,-99.99,,2013-09-20 19:00:00,
2013-09-20 15:42:00,76.0,56.0,30.00,SSE,153,6.0,-999.0,49,-99.99,,,-99.99,,2013-09-20 19:42:00,
2013-09-20 15:53:00,76.0,56.0,30.00,SSE,153,6.0,-999.0,49,-99.99,,,-99.99,,2013-09-20 19:53:00,
2013-09-20 16:00:00,75.0,55.0,29.99,SSE,161,6.0,-999.0,51,-99.99,,,-99.99,,2013-09-20 20:00:00,
2013-09-20 16:42:00,75.0,55.0,29.99,SSE,161,6.0,-999.0,51,-99.99,,,-99.99,,2013-09-20 20:42:00,
2013-09-20 16:52:00,75.0,55.0,29.99,SSE,161,6.0,-999.0,51,-99.99,,,-99.99,,2013-09-20 20:52:00,
2013-09-20 17:00:00,73.0,56.0,29.99,SSW,194,8.0,-999.0,55,-99.99,,,-99.99,,2013-09-20 21:00:00,
2013-09-20 17:45:00,73.0,56.0,29.99,SSW,194,8.0,-999.0,55,-99.99,,,-99.99,,2013-09-20 21:45:00,
2013-09-20 17:55:00,73.0,56.0,29.99,SSW,194,8.0,-999.0,55,-99.99,,,-99.99,,2013-09-20 21:55:00,
2013-09-20 18:00:00,71.0,56.0,29.99,SSW,192,10.0,13.0,59,0.00,,,-99.99,,2013-09-20 22:00:00,
2013-09-20 18:44:00,71.0,56.0,29.99,SSW,192,10.0,13.0,59,0.00,,,-99.99,,2013-09-20 22:44:00,
2013-09-20 18:53:00,71.0,56.0,29.99,SSW,192,10.0,13.0,59,0.00,,,-99.99,,2013-09-20 22:53:00,
2013-09-20 19:00:00,66.0,56.0,29.99,South,185,2.0,11.0,71,0.00,,,-99.99,,2013-09-20 23:00:00,
2013-09-20 19:42:00,66.0,56.0,29.99,South,185,2.0,11.0,71,0.00,,,-99.99,,2013-09-20 23:42:00,
2013-09-20 19:53:00,66.0,56.0,29.99,South,185,2.0,11.0,71,0.00,,,-99.99,,2013-09-20 23:53:00,
2013-09-20 20:00:00,61.0,56.0,30.00,South,177,2.0,6.0,83,0.00,,,-99.99,,2013-09-21 00:00:00,
2013-09-20 20:42:00,61.0,56.0,30.00,South,177,2.0,6.0,83,0.00,,,-99.99,,2013-09-21 00:42:00,
2013-09-20 20:52:00,61.0,56.0,30.00,South,177,2.0,6.0,83,0.00,,,-99.99,,2013-09-21 00:52:00,
2013-09-20 21:00:00,57.0,54.0,29.99,SSW,202,0.0,4.0,89,0.00,,,-99.99,,2013-09-21 01:00:00,
2013-09-20 21:42:00,57.0,54.0,29.99,SSW,202,0.0,4.0,89,0.00,,,-99.99,,2013-09-21 01:42:00,
2013-09-20 21:52:00,57.0,54.0,29.99,SSW,202,0.0,4.0,89,0.00,,,-99.99,,2013-09-21 01:52:00,
2013-09-20 22:00:00,54.0,52.0,30.00,SW,219,0.0,0.0,92,0.00,,,-99.99,,2013-09-21 02:00:00,
2013-09-20 22:42:00,54.0,52.0,30.00,SW,219,0.0,0.0,92,0.00,,,-99.99,,2013-09-21 02:42:00,
2013-09-20 22:52:00,54.0,52.0,30.00,SW,219,0.0,0.0,92,0.00,,,-99.99,,2013-09-21 02:52:00,
2013-09-20 23:00:00,52.0,50.0,30.00,WSW,245,0.0,0.0,93,0.00,,,-99.99,,2013-09-21 03:00:00,
2013-09-20 23:44:00,52.0,50.0,30.00,WSW,245,0.0,0.0,93,0.00,,,-99.99,,2013-09-21 03:44:00,
2013-09-20 23:55:00,52.0,50.0,30.00,WSW,245,0.0,0.0,93,0.00,,,-99.99,,2013-09-21 03:55:00,